Terminal Aerodrome Forecast
Issued by NWS La Crosse, WI

Home | Current Version | Previous Version | Text Only | Print | Product List | Glossary On
Versions: 1 2 3 4 5 6 7 8 9 10 11 12 13 14 15 16 17 18 19 20 21 22 23 24 25 26 27 28 29 30 31 32 33
000
FTUS43 KARX 200614 AAA
TAFLSE
TAF AMD
KLSE 200614Z 2006/2106 36005KT 2SM -FZRA BR OVC007
      TEMPO 2009/2012 2SM TS -FZRAPL BR BKN005CB
     FM201500 VRB03KT 3SM BR OVC008
     FM201700 31007KT 5SM BR OVC010
     FM202000 30011KT P6SM OVC020
     FM210000 30010KT P6SM BKN035=

USA.gov is the U.S. government's official web portal to all federal, state and local government web resources and services.